createdAt,value
2022-07-26T00:01:18.652Z,69.58
2022-07-26T00:03:47.149Z,69.57
2022-07-26T00:06:15.674Z,69.74
2022-07-26T00:08:46.855Z,69.34
2022-07-26T00:11:15.088Z,69.67
2022-07-26T00:13:45.552Z,69.37
2022-07-26T00:16:13.920Z,69.59
2022-07-26T00:18:42.039Z,69.20
2022-07-26T00:21:10.171Z,69.57
2022-07-26T00:23:40.293Z,69.25
2022-07-26T00:26:08.480Z,69.21
2022-07-26T00:28:37.192Z,69.49
2022-07-26T00:31:06.746Z,69.13
2022-07-26T00:33:35.194Z,69.53
2022-07-26T00:36:03.174Z,69.60
2022-07-26T00:38:32.274Z,69.22
2022-07-26T00:41:00.419Z,69.16
2022-07-26T00:43:28.912Z,69.09
2022-07-26T00:45:57.093Z,69.27
2022-07-26T00:48:26.989Z,69.34
2022-07-26T00:50:55.965Z,69.33
2022-07-26T00:53:25.108Z,69.25
2022-07-26T00:55:54.527Z,69.59
2022-07-26T00:58:22.479Z,69.00
2022-07-26T01:00:50.901Z,69.49
2022-07-26T01:03:18.979Z,69.07
2022-07-26T01:05:51.011Z,69.46
2022-07-26T01:08:19.486Z,69.14
2022-07-26T01:10:47.948Z,69.14
2022-07-26T01:13:21.202Z,69.02
2022-07-26T01:15:49.696Z,69.11
2022-07-26T01:18:18.413Z,69.44
2022-07-26T01:20:49.873Z,69.10
2022-07-26T01:23:19.406Z,69.24
2022-07-26T01:25:48.721Z,69.29
2022-07-26T01:28:20.002Z,69.06
2022-07-26T01:30:48.857Z,69.40
2022-07-26T01:33:17.134Z,69.28
2022-07-26T01:35:45.163Z,69.05
2022-07-26T01:38:15.953Z,69.27
2022-07-26T01:40:45.280Z,68.90
2022-07-26T01:43:13.360Z,68.96
2022-07-26T01:45:41.714Z,68.86
2022-07-26T01:48:10.393Z,69.01
2022-07-26T01:50:39.259Z,69.24
2022-07-26T01:53:07.233Z,69.24
2022-07-26T01:55:36.581Z,69.06
2022-07-26T01:58:07.345Z,68.89
2022-07-26T02:00:36.042Z,68.98
2022-07-26T02:03:04.225Z,69.00
2022-07-26T02:05:32.540Z,69.22
2022-07-26T02:08:01.134Z,69.13
2022-07-26T02:10:50.918Z,68.71
2022-07-26T02:13:20.274Z,68.79
2022-07-26T02:15:48.960Z,68.63
2022-07-26T02:18:17.027Z,68.60
2022-07-26T02:20:45.287Z,68.71
2022-07-26T02:23:14.162Z,68.76
2022-07-26T02:25:42.574Z,68.66
2022-07-26T02:28:11.035Z,68.63
2022-07-26T02:30:40.716Z,68.66
2022-07-26T02:33:08.651Z,69.03
2022-07-26T02:35:36.709Z,68.99
2022-07-26T02:38:06.307Z,68.92
2022-07-26T02:40:35.517Z,68.66
2022-07-26T02:43:03.551Z,69.01
2022-07-26T02:45:31.937Z,68.74
2022-07-26T02:48:01.516Z,68.89
2022-07-26T02:50:30.415Z,68.85
2022-07-26T02:52:58.814Z,68.88
2022-07-26T02:55:28.895Z,68.51
2022-07-26T02:57:57.176Z,68.56
2022-07-26T03:00:27.781Z,68.57
2022-07-26T03:02:56.163Z,68.42
2022-07-26T03:05:25.795Z,68.48
2022-07-26T03:07:53.940Z,68.53
2022-07-26T03:10:22.484Z,68.76
2022-07-26T03:12:50.874Z,68.29
2022-07-26T03:15:19.290Z,68.66
2022-07-26T03:17:47.796Z,68.77
2022-07-26T03:20:15.856Z,68.35
2022-07-26T03:22:45.484Z,68.64
2022-07-26T03:25:14.328Z,68.62
2022-07-26T03:27:42.471Z,68.60
2022-07-26T03:30:12.232Z,68.37
2022-07-26T03:32:40.611Z,68.61
2022-07-26T03:35:09.790Z,68.53
2022-07-26T03:37:46.045Z,68.60
2022-07-26T03:40:17.403Z,68.60
2022-07-26T03:42:47.914Z,68.64
2022-07-26T03:45:17.002Z,68.32
2022-07-26T03:47:45.485Z,68.55
2022-07-26T03:50:14.279Z,68.58
2022-07-26T03:52:42.644Z,68.07
2022-07-26T03:55:29.527Z,68.19
2022-07-26T03:57:59.122Z,68.07
2022-07-26T04:00:27.232Z,68.02
2022-07-26T04:02:55.571Z,68.07
2022-07-26T04:05:24.113Z,68.17
2022-07-26T04:07:54.556Z,67.95
2022-07-26T04:10:24.466Z,67.94
2022-07-26T04:12:52.841Z,67.83
2022-07-26T04:15:22.748Z,68.11
2022-07-26T04:17:51.390Z,67.96
2022-07-26T04:20:19.658Z,68.21
2022-07-26T04:22:48.324Z,68.18
2022-07-26T04:25:16.576Z,68.25
2022-07-26T04:27:44.621Z,68.17
2022-07-26T04:30:15.504Z,67.95
2022-07-26T04:32:46.486Z,67.86
2022-07-26T04:35:16.345Z,67.74
2022-07-26T04:37:45.718Z,68.01
2022-07-26T04:40:21.057Z,67.95
2022-07-26T04:42:50.604Z,67.77
2022-07-26T04:45:18.577Z,67.78
2022-07-26T04:47:50.506Z,67.62
2022-07-26T04:50:19.869Z,67.56
2022-07-26T04:52:48.424Z,67.51
2022-07-26T04:55:17.295Z,67.74
2022-07-26T04:57:47.247Z,67.62
2022-07-26T05:00:22.835Z,67.63
2022-07-26T05:02:54.762Z,67.37
2022-07-26T05:05:23.295Z,67.60
2022-07-26T05:07:53.374Z,67.30
2022-07-26T05:10:23.218Z,67.63
2022-07-26T05:12:51.234Z,67.16
2022-07-26T05:15:19.501Z,67.47
2022-07-26T05:17:48.369Z,67.40
2022-07-26T05:20:19.498Z,67.36
2022-07-26T05:22:48.027Z,67.36
2022-07-26T05:25:16.277Z,67.11
2022-07-26T05:27:44.495Z,67.01
2022-07-26T05:30:13.023Z,67.31
2022-07-26T05:32:41.715Z,67.24
2022-07-26T05:35:12.768Z,67.28
2022-07-26T05:37:42.486Z,67.14
2022-07-26T05:40:12.164Z,67.05
2022-07-26T05:42:40.347Z,67.36
2022-07-26T05:45:09.991Z,67.19
2022-07-26T05:47:38.308Z,67.20
2022-07-26T05:50:07.913Z,66.88
2022-07-26T05:52:35.907Z,67.15
2022-07-26T05:55:06.363Z,66.93
2022-07-26T05:57:34.632Z,67.00
2022-07-26T06:00:03.148Z,66.76
2022-07-26T06:02:31.412Z,66.96
2022-07-26T06:04:59.467Z,66.93
2022-07-26T06:07:27.712Z,66.75
2022-07-26T06:09:56.180Z,66.64
2022-07-26T06:12:25.669Z,67.01
2022-07-26T06:14:53.857Z,66.78
2022-07-26T06:17:22.081Z,66.54
2022-07-26T06:19:50.126Z,66.61
2022-07-26T06:22:18.518Z,66.59
2022-07-26T06:24:46.928Z,66.49
2022-07-26T06:27:15.234Z,66.60
2022-07-26T06:29:45.139Z,66.42
2022-07-26T06:32:13.328Z,66.50
2022-07-26T06:34:41.427Z,66.47
2022-07-26T06:37:09.396Z,66.44
2022-07-26T06:39:37.478Z,66.70
2022-07-26T06:42:05.789Z,66.23
2022-07-26T06:44:33.830Z,66.59
2022-07-26T06:47:03.412Z,66.23
2022-07-26T06:49:35.021Z,66.17
2022-07-26T06:52:03.114Z,66.15
2022-07-26T06:54:31.770Z,66.33
2022-07-26T06:57:00.039Z,66.16
2022-07-26T06:59:28.247Z,66.27
2022-07-26T07:01:59.991Z,66.31
2022-07-26T07:04:31.372Z,66.41
2022-07-26T07:07:05.343Z,66.36
2022-07-26T07:09:34.574Z,66.03
2022-07-26T07:12:09.682Z,66.15
2022-07-26T07:14:38.779Z,66.15
2022-07-26T07:17:11.607Z,66.27
2022-07-26T07:19:43.572Z,66.36
2022-07-26T07:22:12.937Z,66.32
2022-07-26T07:24:41.532Z,66.14
2022-07-26T07:27:10.816Z,66.12
2022-07-26T07:29:41.372Z,66.60
2022-07-26T07:32:17.991Z,66.17
2022-07-26T07:34:48.986Z,66.05
2022-07-26T07:37:17.312Z,66.26
2022-07-26T07:39:48.788Z,66.02
2022-07-26T07:42:19.556Z,66.31
2022-07-26T07:44:48.062Z,66.12
2022-07-26T07:47:16.351Z,65.92
2022-07-26T07:49:44.549Z,65.97
2022-07-26T07:52:13.852Z,66.25
2022-07-26T07:54:42.210Z,66.11
2022-07-26T07:57:10.725Z,66.13
2022-07-26T07:59:39.413Z,65.87
2022-07-26T08:02:08.321Z,66.13
2022-07-26T08:04:36.595Z,65.84
2022-07-26T08:07:04.701Z,65.84
2022-07-26T08:09:34.272Z,65.52
2022-07-26T08:12:02.583Z,65.70
2022-07-26T08:14:31.095Z,65.78
2022-07-26T08:16:59.314Z,65.94
2022-07-26T08:19:31.048Z,65.81
2022-07-26T08:22:10.230Z,66.04
2022-07-26T08:24:40.671Z,65.83
2022-07-26T08:27:08.875Z,65.52
2022-07-26T08:29:37.000Z,65.78
2022-07-26T08:32:05.489Z,65.74
2022-07-26T08:34:33.703Z,65.87
2022-07-26T08:37:18.565Z,65.95
2022-07-26T08:39:48.285Z,65.82
2022-07-26T08:42:17.832Z,65.51
2022-07-26T08:44:51.943Z,65.83
2022-07-26T08:47:37.697Z,65.77
2022-07-26T08:50:11.501Z,65.74
2022-07-26T08:52:41.457Z,65.68
2022-07-26T08:55:12.303Z,65.40
2022-07-26T08:57:40.611Z,65.34
2022-07-26T09:00:19.548Z,65.47
2022-07-26T09:02:48.593Z,65.73
2022-07-26T09:05:19.371Z,65.57
2022-07-26T09:07:47.545Z,65.65
2022-07-26T09:10:18.696Z,65.20
2022-07-26T09:12:47.001Z,65.65
2022-07-26T09:15:23.539Z,65.37
2022-07-26T09:17:54.026Z,65.70
2022-07-26T09:20:25.998Z,65.35
2022-07-26T09:23:03.324Z,65.22
2022-07-26T09:25:34.735Z,65.35
2022-07-26T09:28:05.463Z,65.44
2022-07-26T09:30:33.595Z,65.42
2022-07-26T09:33:04.733Z,65.49
2022-07-26T09:35:49.909Z,65.36
2022-07-26T09:38:19.423Z,65.18
2022-07-26T09:40:50.892Z,65.45
2022-07-26T09:43:23.833Z,65.33
2022-07-26T09:46:06.276Z,64.86
2022-07-26T09:49:10.078Z,65.02
2022-07-26T09:51:40.571Z,64.88
2022-07-26T09:54:09.734Z,65.18
2022-07-26T09:56:48.364Z,64.40
2022-07-26T09:59:17.754Z,64.79
2022-07-26T10:01:46.201Z,64.76
2022-07-26T10:04:15.565Z,64.93
2022-07-26T10:06:44.444Z,64.97
2022-07-26T10:09:14.195Z,64.70
2022-07-26T10:11:48.142Z,64.56
2022-07-26T10:14:45.949Z,64.35
2022-07-26T10:17:42.813Z,64.00
2022-07-26T10:20:33.539Z,64.91
2022-07-26T10:23:01.768Z,64.71
2022-07-26T10:25:49.454Z,64.53
2022-07-26T10:28:31.147Z,64.59
2022-07-26T10:31:29.738Z,64.12
2022-07-26T10:33:59.904Z,64.68
2022-07-26T10:36:34.336Z,64.80
2022-07-26T10:39:08.715Z,64.81
2022-07-26T10:41:39.603Z,64.40
2022-07-26T10:44:24.246Z,64.72
2022-07-26T10:47:05.126Z,64.46
2022-07-26T10:49:35.557Z,64.52
2022-07-26T10:52:22.329Z,64.39
2022-07-26T10:55:07.832Z,64.41
2022-07-26T10:57:38.259Z,64.73
2022-07-26T11:00:12.585Z,64.44
2022-07-26T11:02:43.543Z,64.83
2022-07-26T11:05:14.656Z,64.92
2022-07-26T11:07:57.937Z,64.59
2022-07-26T11:10:28.283Z,64.55
2022-07-26T11:13:10.960Z,64.82
2022-07-26T11:15:43.195Z,64.63
2022-07-26T11:18:14.706Z,64.75
2022-07-26T11:20:45.493Z,64.87
2022-07-26T11:23:32.917Z,65.06
2022-07-26T11:26:16.195Z,64.93
2022-07-26T11:28:56.801Z,65.09
2022-07-26T11:31:50.864Z,65.24
2022-07-26T11:34:23.062Z,64.97
2022-07-26T11:36:53.473Z,65.13
2022-07-26T11:39:24.010Z,65.06
2022-07-26T11:41:57.827Z,64.61
2022-07-26T11:44:26.967Z,64.60
2022-07-26T11:46:58.944Z,64.72
2022-07-26T11:50:00.748Z,64.50
2022-07-26T11:52:24.295Z,64.95
2022-07-26T11:54:54.999Z,64.82
2022-07-26T11:57:23.456Z,64.57
2022-07-26T11:59:51.762Z,64.81
2022-07-26T12:02:23.677Z,64.82
2022-07-26T12:05:16.298Z,64.38
2022-07-26T12:07:56.798Z,64.78
2022-07-26T12:10:25.059Z,64.65
2022-07-26T12:13:08.175Z,64.43
2022-07-26T12:15:46.889Z,64.39
2022-07-26T12:18:24.913Z,64.58
2022-07-26T12:21:06.241Z,64.42
2022-07-26T12:23:46.265Z,64.69
2022-07-26T12:26:26.369Z,64.59
2022-07-26T12:28:54.993Z,64.43
2022-07-26T12:31:24.773Z,64.79
2022-07-26T12:33:54.578Z,64.36
2022-07-26T12:36:27.599Z,64.78
2022-07-26T12:38:57.345Z,64.68
2022-07-26T12:41:33.348Z,64.72
2022-07-26T12:44:01.579Z,64.54
2022-07-26T12:46:33.457Z,64.67
2022-07-26T12:49:04.870Z,64.32
2022-07-26T12:51:33.459Z,64.45
2022-07-26T12:54:01.875Z,64.76
2022-07-26T12:56:30.016Z,64.46
2022-07-26T12:59:01.751Z,64.47
2022-07-26T13:01:31.074Z,64.32
2022-07-26T13:03:59.323Z,64.32
2022-07-26T13:06:28.916Z,64.42
2022-07-26T13:08:57.580Z,64.50
2022-07-26T13:11:26.152Z,64.37
2022-07-26T13:13:55.166Z,64.36
2022-07-26T13:16:23.510Z,64.38
2022-07-26T13:18:51.514Z,64.61
2022-07-26T13:21:19.581Z,64.15
2022-07-26T13:23:49.357Z,64.25
2022-07-26T13:26:17.676Z,64.49
2022-07-26T13:28:49.765Z,64.25
2022-07-26T13:31:18.532Z,64.10
2022-07-26T13:33:46.787Z,64.17
2022-07-26T13:36:15.076Z,64.56
2022-07-26T13:38:43.315Z,64.38
2022-07-26T13:41:13.069Z,64.25
2022-07-26T13:43:41.924Z,64.09
2022-07-26T13:46:10.252Z,64.41
2022-07-26T13:48:48.108Z,64.40
2022-07-26T13:51:48.365Z,64.50
2022-07-26T13:54:17.965Z,64.23
2022-07-26T13:56:48.088Z,64.18
2022-07-26T13:59:16.913Z,64.00
2022-07-26T14:01:45.485Z,64.09
2022-07-26T14:04:15.322Z,64.06
2022-07-26T14:06:44.309Z,63.98
2022-07-26T14:09:13.369Z,64.26
2022-07-26T14:11:42.098Z,64.14
2022-07-26T14:14:12.505Z,64.02
2022-07-26T14:16:41.359Z,64.11
2022-07-26T14:19:10.063Z,63.85
2022-07-26T14:21:58.720Z,63.88
2022-07-26T14:24:27.017Z,64.17
2022-07-26T14:26:58.826Z,64.25
2022-07-26T14:29:31.277Z,63.94
2022-07-26T14:31:59.306Z,64.03
2022-07-26T14:34:27.496Z,63.83
2022-07-26T14:36:55.426Z,64.21
2022-07-26T14:39:23.469Z,63.77
2022-07-26T14:41:52.152Z,63.86
2022-07-26T14:44:20.207Z,63.82
2022-07-26T14:46:50.012Z,64.26
2022-07-26T14:49:18.144Z,63.89
2022-07-26T14:51:46.204Z,63.80
2022-07-26T14:54:17.535Z,63.80
2022-07-26T14:56:46.007Z,64.05
2022-07-26T14:59:13.904Z,63.92
2022-07-26T15:01:42.168Z,64.11
2022-07-26T15:04:12.817Z,64.28
2022-07-26T15:06:41.274Z,64.25
2022-07-26T15:09:09.480Z,63.82
2022-07-26T15:11:37.703Z,63.94
2022-07-26T15:14:06.423Z,64.08
2022-07-26T15:16:34.682Z,63.67
2022-07-26T15:19:02.830Z,64.15
2022-07-26T15:21:32.783Z,64.11
2022-07-26T15:24:01.039Z,63.93
2022-07-26T15:26:29.225Z,64.11
2022-07-26T15:28:57.448Z,64.04
2022-07-26T15:31:36.550Z,63.76
2022-07-26T15:34:08.926Z,64.04
2022-07-26T15:36:39.171Z,63.99
2022-07-26T15:39:23.495Z,63.70
2022-07-26T15:41:52.582Z,64.09
2022-07-26T15:44:25.668Z,63.73
2022-07-26T15:46:54.523Z,63.67
2022-07-26T15:49:23.118Z,63.94
2022-07-26T15:51:52.680Z,63.85
2022-07-26T15:54:21.060Z,63.88
2022-07-26T15:56:49.678Z,63.90
2022-07-26T15:59:17.681Z,63.60
2022-07-26T16:01:45.737Z,63.55
2022-07-26T16:04:14.305Z,63.76
2022-07-26T16:06:42.637Z,63.44
2022-07-26T16:09:17.704Z,63.74
2022-07-26T16:11:46.610Z,63.69
2022-07-26T16:14:14.717Z,63.49
2022-07-26T16:16:42.771Z,63.87
2022-07-26T16:19:11.413Z,63.75
2022-07-26T16:21:40.789Z,63.82
2022-07-26T16:24:09.234Z,63.85
2022-07-26T16:26:38.643Z,63.71
2022-07-26T16:29:07.588Z,63.65
2022-07-26T16:31:36.941Z,63.84
2022-07-26T16:34:04.936Z,63.41
2022-07-26T16:36:33.743Z,63.49
2022-07-26T16:39:01.719Z,63.58
2022-07-26T16:41:30.296Z,63.46
2022-07-26T16:43:59.654Z,63.40
2022-07-26T16:46:28.486Z,63.45
2022-07-26T16:48:56.977Z,63.43
2022-07-26T16:51:25.310Z,63.38
2022-07-26T16:53:54.084Z,63.42
2022-07-26T16:56:22.401Z,63.42
2022-07-26T16:58:50.528Z,63.38
2022-07-26T17:01:19.982Z,63.35
2022-07-26T17:03:48.131Z,63.28
2022-07-26T17:06:16.179Z,63.69
2022-07-26T17:08:44.636Z,63.23
2022-07-26T17:11:13.031Z,63.22
2022-07-26T17:13:41.052Z,63.59
2022-07-26T17:16:09.101Z,63.49
2022-07-26T17:18:39.022Z,63.10
2022-07-26T17:21:07.484Z,63.11
2022-07-26T17:23:36.629Z,63.42
2022-07-26T17:26:04.675Z,63.29
2022-07-26T17:28:32.789Z,63.13
2022-07-26T17:31:00.713Z,63.26
2022-07-26T17:33:28.978Z,63.09
2022-07-26T17:36:02.115Z,63.20
2022-07-26T17:38:32.680Z,63.15
2022-07-26T17:41:02.233Z,62.89
2022-07-26T17:43:36.356Z,63.11
2022-07-26T17:46:05.447Z,62.82
2022-07-26T17:48:34.260Z,62.79
2022-07-26T17:51:03.804Z,63.15
2022-07-26T17:53:34.440Z,63.12
2022-07-26T17:56:02.981Z,62.99
2022-07-26T17:58:31.187Z,62.77
2022-07-26T18:00:59.275Z,63.21
2022-07-26T18:03:27.449Z,62.71
2022-07-26T18:05:55.626Z,63.03
2022-07-26T18:08:27.257Z,63.21
2022-07-26T18:10:55.500Z,63.08
2022-07-26T18:13:24.038Z,63.17
2022-07-26T18:15:52.634Z,62.92
2022-07-26T18:18:21.210Z,63.20
2022-07-26T18:20:50.229Z,62.87
2022-07-26T18:23:18.320Z,62.77
2022-07-26T18:25:47.824Z,63.18
2022-07-26T18:28:16.810Z,63.15
2022-07-26T18:30:45.188Z,62.85
2022-07-26T18:33:14.538Z,63.10
2022-07-26T18:35:42.821Z,62.66
2022-07-26T18:38:10.969Z,62.62
2022-07-26T18:40:38.926Z,62.95
2022-07-26T18:43:08.253Z,63.03
2022-07-26T18:45:36.299Z,62.66
2022-07-26T18:48:05.880Z,62.95
2022-07-26T18:50:33.905Z,62.89
2022-07-26T18:53:03.175Z,62.93
2022-07-26T18:55:31.084Z,62.92
2022-07-26T18:58:03.248Z,62.72
2022-07-26T19:00:35.855Z,62.93
2022-07-26T19:03:03.928Z,62.85
2022-07-26T19:05:35.271Z,62.66
2022-07-26T19:08:03.847Z,62.94
2022-07-26T19:10:32.170Z,62.61
2022-07-26T19:13:00.255Z,63.02
2022-07-26T19:15:29.833Z,62.63
2022-07-26T19:17:59.580Z,62.99
2022-07-26T19:20:30.643Z,62.80
2022-07-26T19:22:58.699Z,62.68
2022-07-26T19:25:26.668Z,62.83
2022-07-26T19:27:54.656Z,62.84
2022-07-26T19:30:22.957Z,62.72
2022-07-26T19:32:51.144Z,62.67
2022-07-26T19:35:20.652Z,62.85
2022-07-26T19:37:48.814Z,62.75
2022-07-26T19:40:17.034Z,62.47
2022-07-26T19:42:46.878Z,62.65
2022-07-26T19:45:15.102Z,62.87
2022-07-26T19:47:43.286Z,62.72
2022-07-26T19:50:12.444Z,62.71
2022-07-26T19:52:42.653Z,62.57
2022-07-26T19:55:11.247Z,62.65
2022-07-26T19:57:39.617Z,62.68
2022-07-26T20:00:09.751Z,62.78
2022-07-26T20:02:38.017Z,62.77
2022-07-26T20:05:06.923Z,62.62
2022-07-26T20:07:34.912Z,62.55
2022-07-26T20:10:06.089Z,62.53
2022-07-26T20:12:34.530Z,62.54
2022-07-26T20:15:02.505Z,62.82
2022-07-26T20:17:33.552Z,62.44
2022-07-26T20:20:01.641Z,62.81
2022-07-26T20:22:29.791Z,62.39
2022-07-26T20:24:57.811Z,62.78
2022-07-26T20:27:27.545Z,62.42
2022-07-26T20:30:00.698Z,62.52
2022-07-26T20:32:29.311Z,62.54
2022-07-26T20:34:57.359Z,62.84
2022-07-26T20:37:25.397Z,62.57
2022-07-26T20:39:53.899Z,62.47
2022-07-26T20:42:22.978Z,62.42
2022-07-26T20:44:53.870Z,62.34
2022-07-26T20:47:22.495Z,62.71
2022-07-26T20:49:51.284Z,62.70
2022-07-26T20:52:19.535Z,62.68
2022-07-26T20:54:48.087Z,62.42
2022-07-26T20:57:16.186Z,62.39
2022-07-26T20:59:44.381Z,62.37
2022-07-26T21:02:13.972Z,62.73
2022-07-26T21:04:41.913Z,62.81
2022-07-26T21:07:10.027Z,62.78
2022-07-26T21:09:38.160Z,62.55
2022-07-26T21:12:06.881Z,62.45
2022-07-26T21:14:35.006Z,62.71
2022-07-26T21:17:05.598Z,62.43
2022-07-26T21:19:38.751Z,62.77
2022-07-26T21:22:07.261Z,62.30
2022-07-26T21:24:36.051Z,62.74
2022-07-26T21:27:04.707Z,62.53
2022-07-26T21:29:38.021Z,62.50
2022-07-26T21:32:07.891Z,62.31
2022-07-26T21:34:36.062Z,62.51
2022-07-26T21:37:06.436Z,62.33
2022-07-26T21:39:34.602Z,62.43
2022-07-26T21:42:02.513Z,62.67
2022-07-26T21:44:30.612Z,62.66
2022-07-26T21:46:58.583Z,62.78
2022-07-26T21:49:26.972Z,62.51
2022-07-26T21:51:55.124Z,62.71
2022-07-26T21:54:25.000Z,62.35
2022-07-26T21:56:53.115Z,62.53
2022-07-26T21:59:21.142Z,62.61
2022-07-26T22:01:49.059Z,62.53
2022-07-26T22:04:18.057Z,62.30
2022-07-26T22:06:46.006Z,62.37
2022-07-26T22:09:14.858Z,62.41
2022-07-26T22:11:44.452Z,62.58
2022-07-26T22:14:12.921Z,62.27
2022-07-26T22:16:40.990Z,62.67
2022-07-26T22:19:09.408Z,62.33
2022-07-26T22:21:37.787Z,62.27
2022-07-26T22:24:06.466Z,62.55
2022-07-26T22:26:34.520Z,62.25
2022-07-26T22:29:04.180Z,62.36
2022-07-26T22:31:32.829Z,62.67
2022-07-26T22:34:00.945Z,62.69
2022-07-26T22:36:29.714Z,62.60
2022-07-26T22:38:57.796Z,62.41
2022-07-26T22:41:25.773Z,62.47
2022-07-26T22:44:00.328Z,62.64
2022-07-26T22:46:30.195Z,62.63
2022-07-26T22:48:58.253Z,62.67
2022-07-26T22:51:26.442Z,62.40
2022-07-26T22:53:54.478Z,62.64
2022-07-26T22:56:23.284Z,62.60
2022-07-26T22:58:51.220Z,62.16
2022-07-26T23:01:19.426Z,62.42
2022-07-26T23:03:49.661Z,62.53
2022-07-26T23:06:31.648Z,62.58
2022-07-26T23:09:00.508Z,62.43
2022-07-26T23:11:28.417Z,62.40
2022-07-26T23:13:59.862Z,62.42
2022-07-26T23:16:28.189Z,62.52
2022-07-26T23:18:58.714Z,62.24
2022-07-26T23:21:27.796Z,62.51
2022-07-26T23:23:56.029Z,62.21
2022-07-26T23:26:24.389Z,62.49
2022-07-26T23:28:52.553Z,62.33
2022-07-26T23:31:21.231Z,62.49
2022-07-26T23:33:51.731Z,62.65
2022-07-26T23:36:25.127Z,62.65
2022-07-26T23:38:53.395Z,62.42
2022-07-26T23:41:21.415Z,62.43
2022-07-26T23:43:49.677Z,62.28
2022-07-26T23:46:18.743Z,62.43
2022-07-26T23:48:47.236Z,62.60
2022-07-26T23:51:15.238Z,62.41
2022-07-26T23:53:45.730Z,62.48
2022-07-26T23:56:13.728Z,62.42
2022-07-26T23:58:41.634Z,62.24
